Time;durP1;ratioP1;P1;durP2;ratioP2;P2;SDS_P1;SDS_P2;PMS_P1;PMS_P2;Temp;Humidity;BMP_temperature;BMP_pressure;BME280_temperature;BME280_humidity;BME280_pressure;Samples;Min_cycle;Max_cycle;Signal;HPM_P1;HPM_P2
2022/01/25 11:47:56;;;;;;;16.90;10.07;;;19.20;45.30;;;;;;5125773;27;20399;-58
2022/01/25 11:59:59;;;;;;;30.30;12.27;;;;;;;;;;5128282;27;20310;-59
2022/01/25 12:02:54;;;;;;;33.03;12.52;;;;;;;;;;5141495;27;20039;-59
2022/01/25 12:05:27;;;;;;;29.70;11.30;;;;;;;;;;5034165;28;20044;-59
2022/01/25 12:08:06;;;;;;;36.88;12.05;;;;;;;;;;5033876;28;20037;-59
2022/01/25 12:10:33;;;;;;;27.85;11.75;;;;;;;;;;5043716;28;20057;-60
2022/01/25 12:13:20;;;;;;;29.52;11.00;;;;;;;;;;5053870;28;20037;-59
2022/01/25 12:15:46;;;;;;;31.52;11.02;;;;;;;;;;5020877;28;20040;-59
2022/01/25 12:18:31;;;;;;;39.45;12.20;;;;;;;;;;5032385;28;20037;-59
2022/01/25 12:20:57;;;;;;;26.85;11.32;;;;;;;;;;5044278;28;20045;-58
2022/01/25 12:23:42;;;;;;;27.20;11.50;;;;;;;;;;5026343;28;20120;-59
2022/01/25 12:26:14;;;;;;;26.58;11.57;;;;;;;;;;5028099;28;20053;-59
2022/01/25 12:28:45;;;;;;;29.95;11.98;;;;;;;;;;5043617;28;20131;-59
2022/01/25 12:31:19;;;;;;;33.80;12.02;;;;;;;;;;5028092;28;20041;-59
2022/01/25 12:33:46;;;;;;;26.48;11.55;;;;;;;;;;5042436;28;20489;-59
2022/01/25 12:36:12;;;;;;;25.63;10.65;;;;;;;;;;5026163;28;20428;-59
2022/01/25 12:38:38;;;;;;;25.25;11.52;;;;;;;;;;5043157;28;20049;-59
2022/01/25 12:41:04;;;;;;;28.08;11.60;;;;;;;;;;5056933;28;20052;-59
2022/01/25 12:43:34;;;;;;;22.17;10.93;;;;;;;;;;5106835;28;20051;-59
2022/01/25 12:46:10;;;;;;;26.85;11.63;;;;;;;;;;5126962;28;20046;-59
2022/01/25 12:48:39;;;;;;;26.70;12.32;;;;;;;;;;5127037;27;20040;-59
2022/01/25 12:51:07;;;;;;;26.77;12.00;;;;;;;;;;5125781;28;20039;-59
2022/01/25 12:53:34;;;;;;;25.85;12.73;;;;;;;;;;5126764;28;20058;-59
2022/01/25 12:56:05;;;;;;;27.50;11.13;;;;;;;;;;5123714;28;20115;-59
2022/01/25 12:58:32;;;;;;;24.38;10.98;;;;;;;;;;5126586;27;20059;-59
2022/01/25 13:01:00;;;;;;;22.45;10.23;;;;;;;;;;5126783;27;20126;-59
2022/01/25 13:03:33;;;;;;;22.92;11.30;;;;;;;;;;5126561;28;20552;-59
2022/01/25 13:06:07;;;;;;;23.45;11.68;;;;;;;;;;5125745;28;20040;-59
2022/01/25 13:08:34;;;;;;;23.58;10.63;;;;;;;;;;5125881;27;20568;-59
2022/01/25 13:11:16;;;;;;;25.27;10.32;;;;;;;;;;5113571;28;20089;-59
2022/01/25 13:16:38;;;;;;;23.83;11.43;;;;;;;;;;5029464;28;20436;-59
2022/01/25 13:19:04;;;;;;;18.00;11.07;;;;;;;;;;5017566;28;20618;-59
2022/01/25 13:21:57;;;;;;;19.00;10.00;;;;;;;;;;5019898;28;20049;-59
2022/01/25 13:24:26;;;;;;;20.48;10.35;;;;;;;;;;5027535;28;20457;-60
2022/01/25 13:26:57;;;;;;;20.33;10.57;;;;;;;;;;5028548;28;20517;-59
2022/01/25 13:32:13;;;;;;;19.48;9.90;;;;;;;;;;5015675;28;20057;-59
2022/01/25 13:34:39;;;;;;;18.58;10.65;;;;;;;;;;5029805;28;20426;-59
2022/01/25 13:37:05;;;;;;;19.75;10.07;;;;;;;;;;5012842;28;20195;-59
2022/01/25 13:39:35;;;;;;;20.45;9.77;;;;;;;;;;5022652;28;20056;-59
2022/01/25 13:42:04;;;;;;;18.30;11.02;;;;;;;;;;5048424;28;20138;-59
2022/01/25 13:47:15;;;;;;;16.85;10.23;;;;;;;;;;5032785;28;20053;-59
2022/01/25 13:49:42;;;;;;;16.48;9.88;;;;;;;;;;5047879;28;20036;-59
2022/01/25 13:52:08;;;;;;;18.85;10.50;;;;;;;;;;5032773;28;20057;-59
2022/01/25 13:54:34;;;;;;;19.55;10.30;;;;;;;;;;5088988;28;20054;-59
2022/01/25 13:57:09;;;;;;;19.50;10.27;;;;;;;;;;5090923;28;20444;-59
2022/01/25 13:59:35;;;;;;;22.98;11.20;;;;;;;;;;5074415;28;20121;-59
2022/01/25 14:02:01;;;;;;;18.13;10.20;;;;;;;;;;5109912;28;20048;-59
2022/01/25 14:04:28;;;;;;;18.52;10.15;;;;;;;;;;5110713;28;20079;-58
2022/01/25 14:06:54;;;;;;;19.02;11.52;;;;;;;;;;5093343;28;20039;-59
2022/01/25 14:09:28;;;;;;;16.50;10.88;;;;;;;;;;5110997;28;20155;-59
2022/01/25 14:25:34;;;;;;;14.93;9.07;;;;;;;;;;5111291;28;20131;-59
2022/01/25 14:28:04;;;;;;;17.27;10.30;;;;;;;;;;5111109;28;20048;-59
2022/01/25 14:30:31;;;;;;;17.77;9.23;;;;;;;;;;5111352;28;20550;-59
2022/01/25 14:33:11;;;;;;;14.73;8.82;;;;;;;;;;5075935;28;20486;-59
2022/01/25 14:35:44;;;;;;;15.70;9.25;;;;;;;;;;5111274;27;20043;-59
2022/01/25 14:38:14;;;;;;;14.52;9.23;;;;;;;;;;5111251;28;20069;-59
2022/01/25 14:40:40;;;;;;;15.80;9.10;;;;;;;;;;5109140;28;20096;-59
2022/01/25 14:43:06;;;;;;;17.60;9.98;;;;;;;;;;5109856;28;20035;-59
2022/01/25 14:45:33;;;;;;;15.65;9.73;;;;;;;;;;5109778;28;20127;-59
2022/01/25 14:48:00;;;;;;;16.95;10.15;;;;;;;;;;5110895;28;20104;-59
2022/01/25 14:50:32;;;;;;;18.63;10.10;;;;;;;;;;5110795;28;20039;-59
2022/01/25 14:53:01;;;;;;;16.02;10.32;;;;;;;;;;5110989;28;20097;-59
2022/01/25 14:55:27;;;;;;;15.73;9.65;;;;;;;;;;5109621;28;20044;-59
2022/01/25 15:00:52;;;;;;;16.25;9.40;;;;;;;;;;5062890;28;20532;-59
2022/01/25 15:03:18;;;;;;;14.45;9.52;;;;;;;;;;5067238;28;20040;-59
2022/01/25 15:05:45;;;;;;;13.95;8.65;;;;;;;;;;5049777;28;20472;-61
2022/01/25 15:08:12;;;;;;;14.18;9.05;;;;;;;;;;5050933;28;20049;-59
2022/01/25 15:10:43;;;;;;;14.32;9.05;;;;;;;;;;5029679;28;20059;-59
2022/01/25 15:13:09;;;;;;;15.80;9.40;;;;;;;;;;5044835;28;20052;-59
2022/01/25 15:18:20;;;;;;;14.20;8.20;;;;;;;;;;5047366;28;20649;-59
2022/01/25 15:20:46;;;;;;;14.43;8.43;;;;;;;;;;5058295;28;20053;-59
2022/01/25 15:23:12;;;;;;;16.45;9.57;;;;;;;;;;5049185;28;20040;-59
2022/01/25 15:25:38;;;;;;;14.93;8.88;;;;;;;;;;5065470;28;20532;-58
2022/01/25 15:28:06;;;;;;;15.68;9.23;;;;;;;;;;5043871;28;20563;-59
2022/01/25 15:30:32;;;;;;;17.35;9.68;;;;;;;;;;5061294;28;20453;-59
2022/01/25 15:32:58;;;;;;;14.00;8.98;;;;;;;;;;5056355;28;20150;-59
2022/01/25 15:35:24;;;;;;;14.95;8.90;;;;;;;;;;5049396;28;20045;-59
2022/01/25 15:37:50;;;;;;;16.75;9.27;;;;;;;;;;5107103;28;20044;-59
2022/01/25 15:40:16;;;;;;;15.27;10.18;;;;;;;;;;5108574;28;20035;-59
2022/01/25 15:42:43;;;;;;;14.60;8.65;;;;;;;;;;5108083;28;20030;-59
2022/01/25 15:45:25;;;;;;;14.50;9.65;;;;;;;;;;5091399;28;20149;-58
2022/01/25 15:47:51;;;;;;;15.40;9.57;;;;;;;;;;5098098;28;20043;-59
2022/01/25 15:50:17;;;;;;;15.05;9.70;;;;;;;;;;5108389;28;20037;-59
2022/01/25 15:52:43;;;;;;;16.17;10.75;;;;;;;;;;5108703;28;20391;-59
2022/01/25 15:55:09;;;;;;;14.82;9.48;;;;;;;;;;5109775;28;20535;-59
2022/01/25 15:57:36;;;;;;;15.25;10.13;;;;;;;;;;5107044;28;20040;-58
2022/01/25 16:00:02;;;;;;;14.88;9.52;;;;;;;;;;5109495;28;20118;-58
2022/01/25 16:02:28;;;;;;;17.38;9.57;;;;;;;;;;5109432;28;20067;-58
2022/01/25 16:04:54;;;;;;;14.25;9.68;;;;;;;;;;5108969;28;20529;-59
2022/01/25 16:07:20;;;;;;;13.88;8.68;;;;;;;;;;5109039;28;20063;-59
2022/01/25 16:09:51;;;;;;;16.75;9.20;;;;;;;;;;5107383;28;20407;-59
2022/01/25 16:12:17;;;;;;;15.40;9.75;;;;;;;;;;5091410;28;20101;-59
2022/01/25 16:14:43;;;;;;;15.10;9.43;;;;;;;;;;5109462;28;20043;-59
2022/01/25 16:17:09;;;;;;;16.40;9.43;;;;;;;;;;5109763;28;20051;-59
2022/01/25 16:19:35;;;;;;;16.05;10.30;;;;;;;;;;5108148;28;20040;-58
2022/01/25 16:22:02;;;;;;;15.18;9.65;;;;;;;;;;5107469;28;20491;-59
2022/01/25 16:24:28;;;;;;;16.30;10.88;;;;;;;;;;5108212;28;20046;-59
2022/01/25 16:26:54;;;;;;;15.35;10.05;;;;;;;;;;5108806;28;20119;-59
2022/01/25 16:29:20;;;;;;;18.23;11.38;;;;;;;;;;5107967;28;20039;-58
2022/01/25 16:31:46;;;;;;;17.17;11.38;;;;;;;;;;5109285;28;20096;-59
2022/01/25 16:34:13;;;;;;;18.08;10.95;;;;;;;;;;5109709;28;20490;-58
2022/01/25 16:36:39;;;;;;;16.40;10.45;;;;;;;;;;5107255;28;20044;-59
2022/01/25 16:39:05;;;;;;;16.42;10.18;;;;;;;;;;5109647;28;20043;-58
2022/01/25 16:41:32;;;;;;;15.82;10.18;;;;;;;;;;5108281;28;20122;-58
2022/01/25 16:43:58;;;;;;;16.27;10.18;;;;;;;;;;5108800;28;20039;-59
2022/01/25 16:46:24;;;;;;;16.77;10.95;;;;;;;;;;5110922;28;20344;-59
2022/01/25 16:48:50;;;;;;;18.95;10.73;;;;;;;;;;5095356;28;20244;-59
2022/01/25 16:51:16;;;;;;;16.95;11.07;;;;;;;;;;5112638;28;20126;-59
2022/01/25 16:53:45;;;;;;;18.67;11.35;;;;;;;;;;5095454;28;20047;-59
2022/01/25 16:56:12;;;;;;;17.23;10.18;;;;;;;;;;4758064;27;9999715;-58
2022/01/25 16:58:38;;;;;;;17.05;11.05;;;;;;;;;;5091057;28;20419;-59
2022/01/25 17:01:04;;;;;;;17.48;10.82;;;;;;;;;;5109573;28;20051;-59
2022/01/25 17:03:30;;;;;;;15.05;9.35;;;;;;;;;;5109031;28;20036;-59
2022/01/25 17:05:58;;;;;;;17.58;10.60;;;;;;;;;;5109280;28;20050;-58
2022/01/25 17:08:24;;;;;;;16.48;10.43;;;;;;;;;;5109108;28;20043;-59
2022/01/25 17:10:50;;;;;;;16.30;10.77;;;;;;;;;;5108540;28;20139;-59
2022/01/25 17:13:16;;;;;;;15.63;10.05;;;;;;;;;;5089494;28;20058;-59
2022/01/25 17:15:43;;;;;;;16.05;10.55;;;;;;;;;;5109213;28;20046;-59
2022/01/25 17:18:09;;;;;;;14.70;9.88;;;;;;;;;;5108202;28;20225;-59
2022/01/25 17:20:35;;;;;;;15.30;10.07;;;;;;;;;;5108676;28;20629;-59
2022/01/25 17:23:01;;;;;;;16.65;9.90;;;;;;;;;;5107322;28;20149;-59
2022/01/25 17:25:27;;;;;;;15.57;10.30;;;;;;;;;;5109300;28;20043;-59
2022/01/25 17:27:53;;;;;;;16.75;10.40;;;;;;;;;;5108720;28;20471;-59
2022/01/25 17:30:19;;;;;;;18.33;11.07;;;;;;;;;;5109000;28;20032;-59
2022/01/25 17:32:45;;;;;;;15.15;10.10;;;;;;;;;;5108730;28;20047;-58
2022/01/25 17:35:11;;;;;;;14.52;9.35;;;;;;;;;;5107594;28;20043;-59
2022/01/25 17:37:38;;;;;;;15.93;9.80;;;;;;;;;;5108839;28;20153;-59
2022/01/25 17:40:04;;;;;;;15.10;9.75;;;;;;;;;;5108545;28;20039;-59
2022/01/25 17:42:30;;;;;;;15.80;10.50;;;;;;;;;;5107996;28;20145;-59
2022/01/25 17:44:56;;;;;;;15.25;9.88;;;;;;;;;;5107672;28;20035;-58
2022/01/25 17:47:22;;;;;;;15.55;9.75;;;;;;;;;;5107021;28;20123;-59
2022/01/25 17:49:48;;;;;;;15.52;10.35;;;;;;;;;;5108403;28;20176;-59
2022/01/25 17:52:15;;;;;;;16.52;11.07;;;;;;;;;;5108495;28;20570;-59
2022/01/25 17:54:41;;;;;;;14.35;9.60;;;;;;;;;;5108325;28;20039;-59
2022/01/25 17:57:07;;;;;;;15.82;9.88;;;;;;;;;;5117655;27;20355;-58
2022/01/25 17:59:33;;;;;;;17.80;10.43;;;;;;;;;;5107902;28;20235;-59
2022/01/25 18:02:03;;;;;;;16.75;9.75;;;;;;;;;;5108409;28;20252;-58
2022/01/25 18:04:29;;;;;;;14.57;10.13;;;;;;;;;;5106371;28;20138;-59
2022/01/25 18:06:55;;;;;;;15.35;9.40;;;;;;;;;;5107803;28;20043;-59
2022/01/25 18:09:21;;;;;;;14.15;9.55;;;;;;;;;;5088453;28;20170;-59
2022/01/25 18:11:47;;;;;;;14.27;9.20;;;;;;;;;;5107438;28;20048;-59
2022/01/25 18:14:14;;;;;;;16.00;10.05;;;;;;;;;;5106850;28;20044;-58
2022/01/25 18:16:40;;;;;;;13.27;9.40;;;;;;;;;;5108096;28;20124;-59
2022/01/25 18:19:07;;;;;;;14.25;9.75;;;;;;;;;;5107572;28;20059;-59
2022/01/25 18:21:36;;;;;;;14.68;9.75;;;;;;;;;;5107180;28;20074;-59
2022/01/25 18:24:15;;;;;;;17.45;10.85;;;;;;;;;;5108083;28;20043;-59
2022/01/25 18:26:47;;;;;;;14.05;9.52;;;;;;;;;;5105457;28;20150;-59
2022/01/25 18:29:13;;;;;;;15.85;9.65;;;;;;;;;;5106078;27;20044;-59
2022/01/25 18:31:40;;;;;;;13.93;9.15;;;;;;;;;;5107457;28;20474;-59
2022/01/25 18:34:07;;;;;;;17.13;10.02;;;;;;;;;;5105749;28;20043;-59
2022/01/25 18:36:33;;;;;;;13.32;8.95;;;;;;;;;;5107290;28;20035;-59
2022/01/25 18:39:08;;;;;;;13.73;8.90;;;;;;;;;;5107503;28;20078;-58
2022/01/25 18:41:34;;;;;;;15.70;9.27;;;;;;;;;;5104627;28;20494;-59
2022/01/25 18:44:00;;;;;;;15.45;10.38;;;;;;;;;;5105354;28;20051;-59
2022/01/25 18:46:27;;;;;;;13.50;8.50;;;;;;;;;;5107420;28;20046;-59
2022/01/25 18:48:55;;;;;;;14.75;9.10;;;;;;;;;;5087463;28;20046;-59
2022/01/25 18:51:21;;;;;;;15.52;9.75;;;;;;;;;;5106485;28;20048;-59
2022/01/25 18:53:47;;;;;;;16.27;10.45;;;;;;;;;;5105446;28;20495;-58
2022/01/25 18:56:14;;;;;;;15.45;9.90;;;;;;;;;;5105553;27;20046;-59
2022/01/25 18:58:40;;;;;;;16.00;9.50;;;;;;;;;;5104276;28;20422;-59
2022/01/25 19:01:13;;;;;;;14.23;8.68;;;;;;;;;;5105551;28;20164;-59
2022/01/25 19:03:39;;;;;;;13.20;8.27;;;;;;;;;;5103745;28;20054;-58
2022/01/25 19:06:05;;;;;;;14.50;9.25;;;;;;;;;;5108940;28;20036;-64
2022/01/25 19:08:31;;;;;;;18.90;10.02;;;;;;;;;;5109608;28;20042;-61
2022/01/25 19:10:57;;;;;;;14.65;8.55;;;;;;;;;;5109968;28;20388;-60
2022/01/25 19:13:24;;;;;;;15.13;8.68;;;;;;;;;;5108899;28;20116;-66
2022/01/25 19:15:50;;;;;;;13.00;7.50;;;;;;;;;;5108502;28;20054;-60
2022/01/25 19:18:16;;;;;;;12.98;7.65;;;;;;;;;;5108838;28;20039;-61
2022/01/25 19:20:42;;;;;;;13.98;7.32;;;;;;;;;;5110193;28;20120;-61
2022/01/25 19:23:08;;;;;;;13.25;6.90;;;;;;;;;;5110346;28;20035;-60
2022/01/25 19:25:34;;;;;;;13.68;7.30;;;;;;;;;;5107711;28;20036;-60
2022/01/25 19:28:00;;;;;;;14.90;7.03;;;;;;;;;;5109177;28;20047;-60
2022/01/25 19:30:27;;;;;;;12.73;7.15;;;;;;;;;;5110248;28;20039;-60
2022/01/25 19:32:59;;;;;;;18.27;8.10;;;;;;;;;;5108539;28;20101;-65
2022/01/25 19:35:25;;;;;;;12.57;7.38;;;;;;;;;;5092776;28;20078;-61
2022/01/25 19:37:51;;;;;;;13.27;7.80;;;;;;;;;;5108761;28;20067;-65
2022/01/25 19:40:17;;;;;;;16.25;7.22;;;;;;;;;;5110144;28;20171;-63
2022/01/25 19:42:43;;;;;;;13.57;7.80;;;;;;;;;;5109801;28;20036;-61
2022/01/25 19:45:09;;;;;;;12.23;7.40;;;;;;;;;;5091537;28;20913;-60
2022/01/25 19:47:36;;;;;;;14.38;8.13;;;;;;;;;;5109531;28;20118;-61
2022/01/25 19:50:02;;;;;;;11.52;7.28;;;;;;;;;;5108408;28;20057;-60
2022/01/25 19:52:35;;;;;;;13.32;7.35;;;;;;;;;;5108372;28;20048;-63
2022/01/25 19:55:08;;;;;;;12.65;7.78;;;;;;;;;;5110214;28;20040;-63
2022/01/25 19:57:34;;;;;;;14.73;8.18;;;;;;;;;;5109175;28;20097;-61
2022/01/25 20:00:00;;;;;;;15.90;8.35;;;;;;;;;;5109774;28;20070;-60
2022/01/25 20:02:27;;;;;;;15.48;7.65;;;;;;;;;;5110104;28;20335;-60
2022/01/25 20:04:57;;;;;;;12.75;7.90;;;;;;;;;;5091867;28;20472;-60
2022/01/25 20:07:23;;;;;;;14.55;8.43;;;;;;;;;;5106367;28;20411;-60
2022/01/25 20:09:53;;;;;;;16.63;8.18;;;;;;;;;;5105513;28;20526;-60
2022/01/25 20:12:19;;;;;;;12.07;7.72;;;;;;;;;;5105311;28;20142;-60
2022/01/25 20:14:50;;;;;;;14.25;8.32;;;;;;;;;;5104591;28;20069;-59
2022/01/25 20:17:20;;;;;;;12.85;7.20;;;;;;;;;;5104848;28;20048;-60
2022/01/25 20:19:46;;;;;;;16.17;7.72;;;;;;;;;;5105604;28;20043;-60
2022/01/25 20:22:15;;;;;;;13.73;7.57;;;;;;;;;;5091399;28;20066;-60
2022/01/25 20:27:20;;;;;;;14.75;8.18;;;;;;;;;;5109878;28;20048;-60
2022/01/25 20:29:53;;;;;;;13.43;7.65;;;;;;;;;;5110206;28;20052;-60
2022/01/25 20:32:19;;;;;;;13.00;8.00;;;;;;;;;;5107741;28;20058;-60
2022/01/25 20:34:54;;;;;;;13.40;7.78;;;;;;;;;;5108594;28;20056;-60
2022/01/25 20:37:20;;;;;;;15.07;7.72;;;;;;;;;;5109513;28;20088;-60
2022/01/25 20:39:46;;;;;;;14.35;8.25;;;;;;;;;;5108488;28;20141;-60
2022/01/25 20:42:12;;;;;;;15.02;7.90;;;;;;;;;;5108466;28;20047;-60
2022/01/25 20:44:40;;;;;;;12.85;7.57;;;;;;;;;;5109769;28;20142;-60
2022/01/25 20:47:06;;;;;;;13.00;8.05;;;;;;;;;;5109413;28;20560;-60
2022/01/25 20:49:32;;;;;;;12.45;7.80;;;;;;;;;;5107412;28;20051;-60
2022/01/25 20:51:58;;;;;;;12.55;8.15;;;;;;;;;;5108928;28;20430;-60
2022/01/25 20:54:24;;;;;;;12.32;7.78;;;;;;;;;;5109278;28;20044;-60
2022/01/25 20:56:50;;;;;;;13.68;8.13;;;;;;;;;;5109287;28;20122;-60
2022/01/25 20:59:20;;;;;;;11.77;7.95;;;;;;;;;;5109170;28;20161;-60
2022/01/25 21:01:47;;;;;;;13.50;8.10;;;;;;;;;;5108675;28;20376;-60
2022/01/25 21:06:43;;;;;;;12.93;8.40;;;;;;;;;;5109087;28;20047;-60
2022/01/25 21:09:16;;;;;;;14.40;8.23;;;;;;;;;;5115699;27;20057;-59
2022/01/25 21:11:43;;;;;;;13.05;7.97;;;;;;;;;;5119829;27;20070;-59
2022/01/25 21:14:09;;;;;;;12.35;7.90;;;;;;;;;;5108534;27;20430;-59
2022/01/25 21:16:37;;;;;;;12.77;7.90;;;;;;;;;;5109160;28;20040;-59
2022/01/25 21:19:03;;;;;;;12.40;7.63;;;;;;;;;;5107223;28;20561;-59
2022/01/25 21:21:29;;;;;;;13.60;8.07;;;;;;;;;;5109229;28;20043;-60
2022/01/25 21:23:57;;;;;;;13.57;8.45;;;;;;;;;;5109076;28;20169;-59
2022/01/25 21:26:23;;;;;;;14.50;7.60;;;;;;;;;;5108436;28;20075;-59
2022/01/25 21:28:49;;;;;;;12.20;7.40;;;;;;;;;;5109284;28;20036;-59
2022/01/25 21:31:21;;;;;;;13.23;7.95;;;;;;;;;;5089528;28;20066;-58
2022/01/25 21:33:47;;;;;;;12.45;7.70;;;;;;;;;;5109219;28;20098;-59
2022/01/25 21:36:14;;;;;;;12.68;8.00;;;;;;;;;;5108557;28;20118;-59
2022/01/25 21:38:40;;;;;;;12.57;7.90;;;;;;;;;;5090048;28;20056;-59
2022/01/25 21:41:06;;;;;;;12.02;7.43;;;;;;;;;;5107109;28;20039;-59
2022/01/25 21:43:34;;;;;;;13.98;7.55;;;;;;;;;;5110135;28;20118;-59
2022/01/25 21:46:00;;;;;;;12.90;7.93;;;;;;;;;;5111000;28;20357;-58
2022/01/25 21:48:27;;;;;;;12.35;7.57;;;;;;;;;;5110155;28;20050;-59
2022/01/25 21:50:53;;;;;;;12.30;7.72;;;;;;;;;;5111844;28;20047;-59
2022/01/25 21:53:19;;;;;;;12.70;7.55;;;;;;;;;;5111220;28;20546;-59
2022/01/25 21:55:45;;;;;;;13.18;7.28;;;;;;;;;;5111338;28;20047;-59
2022/01/25 21:58:12;;;;;;;13.35;7.65;;;;;;;;;;5111944;28;20046;-58
2022/01/25 22:00:38;;;;;;;12.07;7.25;;;;;;;;;;5093171;28;20127;-59
2022/01/25 22:03:15;;;;;;;13.30;7.35;;;;;;;;;;5093543;28;20040;-58
2022/01/25 22:05:45;;;;;;;11.60;7.57;;;;;;;;;;5111862;28;20123;-59
2022/01/25 22:08:19;;;;;;;12.77;7.65;;;;;;;;;;5111802;28;20043;-59
2022/01/25 22:10:50;;;;;;;12.40;7.18;;;;;;;;;;5094185;28;20526;-59
2022/01/25 22:13:21;;;;;;;11.98;7.47;;;;;;;;;;5111389;28;20108;-58
2022/01/25 22:15:47;;;;;;;12.05;7.65;;;;;;;;;;5109468;28;20105;-59
2022/01/25 22:18:15;;;;;;;11.65;7.35;;;;;;;;;;5110106;28;20460;-59
2022/01/25 22:20:41;;;;;;;12.55;7.50;;;;;;;;;;5110210;28;20100;-59
2022/01/25 22:23:10;;;;;;;13.27;7.88;;;;;;;;;;5111560;28;20035;-59
2022/01/25 22:25:36;;;;;;;12.18;7.32;;;;;;;;;;5108189;28;20078;-58
2022/01/25 22:28:03;;;;;;;11.90;7.75;;;;;;;;;;5109687;28;20504;-59
2022/01/25 22:30:29;;;;;;;13.85;8.60;;;;;;;;;;5109281;28;20056;-58
2022/01/25 22:32:55;;;;;;;13.05;7.72;;;;;;;;;;5091896;28;20096;-59
2022/01/25 22:35:21;;;;;;;12.73;7.88;;;;;;;;;;5110446;28;20079;-59
2022/01/25 22:37:47;;;;;;;12.10;7.88;;;;;;;;;;5110137;28;20531;-58
2022/01/25 22:40:14;;;;;;;12.95;7.80;;;;;;;;;;5110818;28;20031;-59
2022/01/25 22:42:40;;;;;;;13.05;8.00;;;;;;;;;;5109804;28;20040;-58
2022/01/25 22:45:06;;;;;;;12.52;8.30;;;;;;;;;;5110818;28;20081;-59
2022/01/25 22:47:39;;;;;;;12.20;7.35;;;;;;;;;;5110775;28;20157;-59
2022/01/25 22:50:06;;;;;;;13.10;7.83;;;;;;;;;;5109984;28;20128;-59
2022/01/25 22:52:32;;;;;;;12.48;7.75;;;;;;;;;;5108848;28;20281;-59
2022/01/25 22:54:58;;;;;;;12.05;7.22;;;;;;;;;;5109199;28;20376;-58
2022/01/25 22:57:24;;;;;;;13.00;7.93;;;;;;;;;;5110246;28;20053;-58
2022/01/25 22:59:50;;;;;;;13.02;7.28;;;;;;;;;;5110302;28;20403;-59
2022/01/25 23:02:27;;;;;;;12.10;7.10;;;;;;;;;;5108273;28;20147;-59
2022/01/25 23:04:57;;;;;;;12.77;7.50;;;;;;;;;;5109034;28;20495;-58
2022/01/25 23:07:24;;;;;;;11.75;6.85;;;;;;;;;;5109073;28;20444;-59
2022/01/25 23:09:50;;;;;;;13.63;8.10;;;;;;;;;;5110638;28;20043;-59
2022/01/25 23:14:49;;;;;;;12.68;7.80;;;;;;;;;;5110606;28;20040;-59
2022/01/25 23:17:18;;;;;;;14.20;7.40;;;;;;;;;;5107646;28;20122;-58
2022/01/25 23:19:47;;;;;;;12.05;7.35;;;;;;;;;;5110465;28;20040;-58
2022/01/25 23:22:14;;;;;;;13.55;7.93;;;;;;;;;;5110355;28;20062;-58
2022/01/25 23:24:41;;;;;;;12.07;7.75;;;;;;;;;;5110029;28;20083;-59
2022/01/25 23:27:07;;;;;;;14.05;8.35;;;;;;;;;;5107760;28;20537;-59
2022/01/25 23:29:33;;;;;;;13.88;8.43;;;;;;;;;;5108807;27;20060;-58
2022/01/25 23:32:29;;;;;;;14.90;7.82;;;;;;;;;;5122068;27;20083;-59
2022/01/25 23:35:09;;;;;;;12.98;8.32;;;;;;;;;;5095111;28;20040;-59
2022/01/25 23:37:43;;;;;;;15.13;8.40;;;;;;;;;;5109610;28;20040;-59
2022/01/25 23:40:10;;;;;;;14.75;9.07;;;;;;;;;;5110352;28;20040;-59
2022/01/25 23:42:47;;;;;;;12.85;8.23;;;;;;;;;;5107909;28;20546;-58
2022/01/25 23:45:15;;;;;;;14.50;8.13;;;;;;;;;;5110325;28;20035;-59
2022/01/25 23:47:46;;;;;;;14.68;9.65;;;;;;;;;;5108680;28;20039;-58
2022/01/25 23:50:19;;;;;;;14.18;9.55;;;;;;;;;;5107980;28;20506;-58
2022/01/25 23:58:32;;;;;;;12.45;7.75;;;;;;;;;;5109626;28;20055;-58
